createdAt,value
2023-02-28T00:01:26.743Z,12.45
2023-02-28T00:04:38.922Z,12.45
2023-02-28T00:07:51.619Z,12.30
2023-02-28T00:11:07.826Z,13.03
2023-02-28T00:14:20.088Z,12.87
2023-02-28T00:17:32.009Z,12.80
2023-02-28T00:20:44.136Z,12.43
2023-02-28T00:23:56.456Z,12.30
2023-02-28T00:27:08.869Z,13.50
2023-02-28T00:30:22.535Z,13.30
2023-02-28T00:33:34.957Z,13.35
2023-02-28T00:36:48.440Z,12.98
2023-02-28T00:40:01.053Z,13.80
2023-02-28T00:43:14.021Z,13.55
2023-02-28T00:46:26.532Z,15.10
2023-02-28T00:49:39.330Z,13.30
2023-02-28T00:52:51.734Z,14.33
2023-02-28T00:56:04.335Z,13.48
2023-02-28T00:59:17.383Z,14.28
2023-02-28T01:02:30.920Z,14.35
2023-02-28T01:05:43.267Z,14.88
2023-02-28T01:08:55.447Z,14.68
2023-02-28T01:12:09.272Z,14.65
2023-02-28T01:15:21.780Z,14.63
2023-02-28T01:18:34.157Z,13.43
2023-02-28T01:21:46.233Z,14.10
2023-02-28T01:24:59.008Z,14.33
2023-02-28T01:28:12.077Z,13.38
2023-02-28T01:31:24.857Z,13.18
2023-02-28T01:34:36.852Z,14.08
2023-02-28T01:37:49.592Z,14.28
2023-02-28T01:41:02.658Z,13.28
2023-02-28T01:44:46.231Z,14.35
2023-02-28T01:48:03.178Z,13.55
2023-02-28T01:51:20.557Z,14.20
2023-02-28T01:54:36.438Z,14.15
2023-02-28T01:57:55.505Z,13.40
2023-02-28T02:01:08.504Z,13.18
2023-02-28T02:04:21.554Z,14.03
2023-02-28T02:07:37.992Z,14.40
2023-02-28T02:10:55.338Z,15.45
2023-02-28T02:14:40.839Z,14.60
2023-02-28T02:17:57.389Z,13.20
2023-02-28T02:21:51.921Z,13.68
2023-02-28T02:25:26.535Z,15.70
2023-02-28T02:29:31.782Z,14.35
2023-02-28T02:33:18.030Z,13.95
2023-02-28T02:36:35.451Z,14.73
2023-02-28T02:39:56.135Z,15.25
2023-02-28T02:43:13.214Z,15.43
2023-02-28T02:46:31.902Z,15.68
2023-02-28T02:49:50.750Z,15.20
2023-02-28T02:56:18.601Z,15.18
2023-02-28T02:59:32.857Z,14.80
2023-02-28T03:02:48.457Z,14.98
2023-02-28T03:06:05.248Z,15.83
2023-02-28T03:09:17.710Z,15.08
2023-02-28T03:12:36.630Z,14.63
2023-02-28T03:16:06.553Z,15.90
2023-02-28T03:19:34.776Z,15.98
2023-02-28T03:22:59.155Z,14.68
2023-02-28T03:26:16.925Z,14.68
2023-02-28T03:29:34.065Z,15.35
2023-02-28T03:32:51.292Z,15.43
2023-02-28T03:36:07.355Z,14.28
2023-02-28T03:39:25.251Z,17.10
2023-02-28T03:42:41.232Z,15.80
2023-02-28T03:45:55.941Z,15.53
2023-02-28T03:49:14.016Z,15.80
2023-02-28T03:52:30.934Z,16.78
2023-02-28T03:55:48.523Z,16.33
2023-02-28T03:59:06.349Z,15.60
2023-02-28T04:02:19.701Z,16.10
2023-02-28T04:05:33.824Z,15.63
2023-02-28T04:08:46.180Z,16.15
2023-02-28T04:12:00.335Z,16.15
2023-02-28T04:15:15.636Z,15.98
2023-02-28T04:18:27.600Z,16.93
2023-02-28T04:21:43.616Z,17.13
2023-02-28T04:24:55.625Z,16.77
2023-02-28T04:28:07.771Z,16.80
2023-02-28T04:31:19.638Z,18.35
2023-02-28T04:34:36.697Z,17.75
2023-02-28T04:37:48.900Z,18.20
2023-02-28T04:41:06.834Z,17.20
2023-02-28T04:44:19.691Z,16.60
2023-02-28T04:47:31.809Z,17.18
2023-02-28T04:50:47.340Z,18.08
2023-02-28T04:53:59.786Z,17.30
2023-02-28T04:57:11.864Z,18.70
2023-02-28T05:00:27.040Z,17.35
2023-02-28T05:03:39.316Z,18.55
2023-02-28T05:06:54.601Z,17.50
2023-02-28T05:10:07.048Z,17.63
2023-02-28T05:13:20.464Z,16.30
2023-02-28T05:16:32.728Z,17.28
2023-02-28T05:19:45.180Z,18.80
2023-02-28T05:22:58.728Z,17.08
2023-02-28T05:26:11.203Z,16.65
2023-02-28T05:29:23.132Z,17.05
2023-02-28T05:32:35.119Z,17.65
2023-02-28T05:35:52.450Z,18.03
2023-02-28T05:39:04.564Z,17.13
2023-02-28T05:42:16.826Z,16.83
2023-02-28T05:45:29.469Z,17.15
2023-02-28T05:48:44.216Z,16.63
2023-02-28T05:51:56.517Z,17.48
2023-02-28T05:55:10.182Z,18.70
2023-02-28T05:58:22.112Z,17.85
2023-02-28T06:01:42.858Z,17.43
2023-02-28T06:04:55.641Z,19.75
2023-02-28T06:08:08.366Z,18.58
2023-02-28T06:11:20.944Z,17.80
2023-02-28T06:14:38.968Z,19.55
2023-02-28T06:17:52.257Z,18.43
2023-02-28T06:21:06.869Z,18.53
2023-02-28T06:24:24.471Z,19.68
2023-02-28T06:46:12.843Z,19.68
2023-02-28T06:49:25.784Z,20.65
2023-02-28T06:52:38.310Z,20.65
2023-02-28T06:58:53.956Z,18.65
2023-02-28T07:02:07.484Z,21.40
2023-02-28T07:08:20.461Z,34.93
2023-02-28T07:11:34.764Z,32.90
2023-02-28T07:14:47.546Z,22.98
2023-02-28T07:21:00.224Z,18.93
2023-02-28T07:24:15.633Z,19.95
2023-02-28T07:27:28.856Z,20.40
2023-02-28T07:33:41.827Z,20.90
2023-02-28T07:36:54.611Z,21.65
2023-02-28T07:40:09.579Z,20.00
2023-02-28T07:43:22.570Z,22.00
2023-02-28T07:46:37.114Z,29.35
2023-02-28T07:49:50.215Z,29.25
2023-02-28T07:53:02.311Z,21.90
2023-02-28T07:56:15.882Z,20.70
2023-02-28T07:59:29.092Z,20.95
2023-02-28T08:05:47.222Z,20.20
2023-02-28T08:12:10.815Z,18.60
2023-02-28T08:15:22.966Z,19.15
2023-02-28T08:18:34.957Z,19.10
2023-02-28T08:21:47.996Z,18.63
2023-02-28T08:24:59.906Z,18.93
2023-02-28T08:28:12.453Z,15.33
2023-02-28T08:31:25.893Z,17.05
2023-02-28T08:34:37.858Z,15.53
2023-02-28T08:37:50.115Z,16.93
2023-02-28T08:41:10.001Z,15.98
2023-02-28T08:44:22.323Z,15.98
2023-02-28T08:47:36.171Z,14.55
2023-02-28T08:50:55.795Z,12.48
2023-02-28T08:54:04.445Z,11.03
2023-02-28T08:57:16.499Z,11.28
2023-02-28T09:00:31.925Z,9.70
2023-02-28T09:03:44.354Z,7.60
2023-02-28T09:06:56.356Z,7.13
2023-02-28T09:10:08.915Z,6.55
2023-02-28T09:13:20.887Z,6.63
2023-02-28T09:16:33.796Z,6.43
2023-02-28T09:19:46.303Z,6.40
2023-02-28T09:22:58.352Z,5.83
2023-02-28T09:26:11.260Z,6.28
2023-02-28T09:29:23.301Z,6.50
2023-02-28T09:32:35.311Z,6.15
2023-02-28T09:35:48.017Z,6.70
2023-02-28T09:39:00.116Z,6.73
2023-02-28T09:42:17.991Z,6.40
2023-02-28T09:45:35.019Z,8.03
2023-02-28T09:52:08.687Z,7.33
2023-02-28T09:55:35.046Z,7.45
2023-02-28T09:58:50.834Z,6.38
2023-02-28T10:02:09.946Z,7.08
2023-02-28T10:05:24.426Z,7.28
2023-02-28T10:08:42.368Z,7.93
2023-02-28T10:11:58.911Z,6.78
2023-02-28T10:15:15.647Z,7.83
2023-02-28T10:18:32.426Z,7.70
2023-02-28T10:21:48.438Z,7.00
2023-02-28T10:25:05.992Z,7.38
2023-02-28T10:28:23.572Z,6.60
2023-02-28T10:31:36.402Z,7.15
2023-02-28T10:34:48.530Z,7.43
2023-02-28T10:38:05.054Z,7.78
2023-02-28T10:41:19.950Z,7.60
2023-02-28T10:44:32.454Z,7.48
2023-02-28T10:47:56.804Z,8.95
2023-02-28T10:51:11.391Z,8.05
2023-02-28T10:54:30.488Z,8.00
2023-02-28T10:57:42.783Z,8.18
2023-02-28T11:00:55.618Z,7.63
2023-02-28T11:04:08.504Z,7.75
2023-02-28T11:07:37.357Z,7.98
2023-02-28T11:10:43.257Z,7.93
2023-02-28T11:13:59.495Z,7.93
2023-02-28T11:17:24.445Z,8.47
2023-02-28T11:20:40.231Z,8.05
2023-02-28T11:23:53.059Z,7.23
2023-02-28T11:27:05.355Z,7.13
2023-02-28T11:30:36.599Z,7.05
2023-02-28T11:33:52.964Z,7.30
2023-02-28T11:37:07.580Z,7.38
2023-02-28T11:40:24.598Z,6.43
2023-02-28T11:46:59.984Z,6.40
2023-02-28T11:50:42.015Z,6.35
2023-02-28T11:54:18.240Z,6.70
2023-02-28T11:57:44.232Z,6.70
2023-02-28T12:01:12.482Z,8.50
2023-02-28T12:04:34.654Z,14.68
2023-02-28T12:07:58.626Z,6.70
2023-02-28T12:11:18.306Z,6.48
2023-02-28T12:15:02.371Z,5.95
2023-02-28T12:18:27.041Z,6.03
2023-02-28T12:21:54.076Z,5.85
2023-02-28T12:25:48.027Z,6.68
2023-02-28T12:29:04.994Z,6.18
2023-02-28T12:32:22.734Z,6.63
2023-02-28T12:35:40.112Z,6.48
2023-02-28T12:38:56.916Z,5.98
2023-02-28T12:42:15.478Z,6.70
2023-02-28T12:45:30.385Z,6.75
2023-02-28T12:48:48.479Z,6.80
2023-02-28T12:52:00.924Z,7.23
2023-02-28T12:55:20.171Z,7.95
2023-02-28T12:58:37.567Z,6.55
2023-02-28T13:02:05.790Z,7.38
2023-02-28T13:06:02.344Z,6.38
2023-02-28T13:09:18.379Z,6.75
2023-02-28T13:12:31.132Z,7.83
2023-02-28T13:15:46.014Z,6.58
2023-02-28T13:18:58.168Z,7.35
2023-02-28T13:22:13.596Z,7.55
2023-02-28T13:26:02.385Z,6.73
2023-02-28T13:29:37.339Z,7.13
2023-02-28T13:32:49.370Z,6.85
2023-02-28T13:36:19.457Z,7.23
2023-02-28T13:39:56.879Z,7.33
2023-02-28T13:43:11.525Z,6.53
2023-02-28T13:46:24.127Z,7.33
2023-02-28T13:49:37.519Z,6.83
2023-02-28T13:53:00.099Z,7.68
2023-02-28T13:56:27.532Z,7.28
2023-02-28T13:59:46.833Z,6.93
2023-02-28T14:03:29.983Z,8.18
2023-02-28T14:06:43.768Z,8.00
2023-02-28T14:10:05.004Z,6.78
2023-02-28T14:13:46.132Z,7.35
2023-02-28T14:17:01.617Z,14.83
2023-02-28T14:20:24.350Z,10.38
2023-02-28T14:24:12.839Z,8.38
2023-02-28T14:27:48.301Z,7.33
2023-02-28T14:31:10.804Z,7.70
2023-02-28T14:34:44.806Z,8.28
2023-02-28T14:37:57.476Z,8.25
2023-02-28T14:41:17.733Z,7.58
2023-02-28T14:44:33.004Z,8.68
2023-02-28T14:47:45.285Z,8.20
2023-02-28T14:51:04.446Z,8.35
2023-02-28T14:54:25.040Z,8.33
2023-02-28T14:57:39.851Z,8.15
2023-02-28T15:00:59.425Z,18.28
2023-02-28T15:04:19.835Z,18.70
2023-02-28T15:07:35.060Z,11.70
2023-02-28T15:10:49.779Z,10.28
2023-02-28T15:14:03.402Z,11.13
2023-02-28T15:17:22.779Z,10.83
2023-02-28T15:20:35.551Z,10.53
2023-02-28T15:23:52.212Z,9.60
2023-02-28T15:27:08.633Z,10.05
2023-02-28T15:30:28.363Z,9.50
2023-02-28T15:33:41.352Z,8.85
2023-02-28T15:36:53.891Z,9.23
2023-02-28T15:40:17.202Z,8.10
2023-02-28T15:43:35.866Z,8.90
2023-02-28T15:46:50.811Z,9.38
2023-02-28T15:50:06.686Z,10.48
2023-02-28T15:53:29.954Z,11.68
2023-02-28T15:56:48.076Z,11.28
2023-02-28T16:00:05.396Z,9.93
2023-02-28T16:03:45.984Z,10.23
2023-02-28T16:07:17.512Z,10.58
2023-02-28T16:10:32.195Z,10.48
2023-02-28T16:13:44.245Z,10.20
2023-02-28T16:16:59.820Z,9.98
2023-02-28T16:20:20.409Z,10.58
2023-02-28T16:23:32.396Z,9.63
2023-02-28T16:26:47.139Z,11.00
2023-02-28T16:30:00.703Z,10.68
2023-02-28T16:33:15.116Z,10.75
2023-02-28T16:36:30.313Z,11.70
2023-02-28T16:39:42.766Z,11.43
2023-02-28T16:42:57.896Z,11.55
2023-02-28T16:46:10.078Z,11.10
2023-02-28T16:49:22.263Z,10.98
2023-02-28T16:52:34.294Z,10.73
2023-02-28T16:55:48.297Z,10.95
2023-02-28T16:59:03.586Z,11.10
2023-02-28T17:02:20.888Z,11.18
2023-02-28T17:05:37.260Z,10.33
2023-02-28T17:08:49.420Z,11.05
2023-02-28T17:12:01.724Z,11.65
2023-02-28T17:15:18.042Z,11.65
2023-02-28T17:18:32.770Z,11.65
2023-02-28T17:21:46.961Z,11.65
2023-02-28T17:25:00.650Z,11.73
2023-02-28T17:28:13.813Z,11.80
2023-02-28T17:31:26.070Z,10.88
2023-02-28T17:34:38.260Z,11.93
2023-02-28T17:37:50.885Z,12.35
2023-02-28T17:41:02.996Z,13.63
2023-02-28T17:44:15.399Z,15.10
2023-02-28T17:47:27.519Z,14.23
2023-02-28T17:50:39.695Z,14.60
2023-02-28T17:53:52.050Z,15.08
2023-02-28T17:57:04.128Z,14.50
2023-02-28T18:00:23.931Z,13.65
2023-02-28T18:03:36.037Z,14.30
2023-02-28T18:06:53.493Z,14.70
2023-02-28T18:10:05.636Z,15.03
2023-02-28T18:13:17.800Z,14.30
2023-02-28T18:16:30.242Z,14.48
2023-02-28T18:19:42.626Z,13.73
2023-02-28T18:22:54.849Z,14.23
2023-02-28T18:26:06.867Z,13.70
2023-02-28T18:29:24.218Z,15.95
2023-02-28T18:32:37.032Z,14.73
2023-02-28T18:35:49.070Z,15.10
2023-02-28T18:39:01.463Z,15.75
2023-02-28T18:42:13.618Z,16.00
2023-02-28T18:45:25.900Z,16.85
2023-02-28T18:48:38.431Z,17.68
2023-02-28T18:51:50.739Z,18.73
2023-02-28T18:55:02.712Z,26.13
2023-02-28T18:58:15.097Z,19.70
2023-02-28T19:01:32.094Z,18.90
2023-02-28T19:04:46.671Z,21.90
2023-02-28T19:07:58.711Z,22.63
2023-02-28T19:11:18.062Z,23.78
2023-02-28T19:18:10.642Z,25.13
2023-02-28T19:21:40.826Z,26.80
2023-02-28T19:24:52.928Z,26.60
2023-02-28T19:28:06.928Z,27.53
2023-02-28T19:31:24.886Z,27.85
2023-02-28T19:34:38.775Z,26.48
2023-02-28T19:37:52.746Z,28.85
2023-02-28T19:41:14.832Z,27.20
2023-02-28T19:44:26.882Z,28.83
2023-02-28T19:47:40.758Z,29.05
2023-02-28T19:50:52.704Z,30.28
2023-02-28T19:54:05.061Z,29.38
2023-02-28T19:57:17.193Z,28.65
2023-02-28T20:00:29.968Z,31.30
2023-02-28T20:03:42.267Z,34.58
2023-02-28T20:06:54.692Z,58.70
2023-02-28T20:10:06.993Z,32.33
2023-02-28T20:13:20.705Z,32.73
2023-02-28T20:16:35.007Z,30.73
2023-02-28T20:19:47.473Z,31.90
2023-02-28T20:22:59.819Z,31.85
2023-02-28T20:26:12.188Z,35.30
2023-02-28T20:29:24.596Z,32.38
2023-02-28T20:32:39.155Z,32.30
2023-02-28T20:35:52.944Z,32.00
2023-02-28T20:39:05.092Z,32.00
2023-02-28T20:42:17.410Z,36.65
2023-02-28T20:45:29.973Z,38.73
2023-02-28T20:48:43.062Z,38.63
2023-02-28T20:51:55.473Z,37.15
2023-02-28T20:55:07.990Z,33.10
2023-02-28T20:58:20.502Z,30.25
2023-02-28T21:01:34.516Z,32.38
2023-02-28T21:04:46.923Z,30.80
2023-02-28T21:07:59.050Z,28.18
2023-02-28T21:11:17.574Z,30.70
2023-02-28T21:14:31.886Z,31.25
2023-02-28T21:17:44.204Z,31.08
2023-02-28T21:20:56.699Z,32.13
2023-02-28T21:24:09.728Z,28.70
2023-02-28T21:27:21.937Z,27.08
2023-02-28T21:30:34.453Z,28.85
2023-02-28T21:33:47.372Z,29.30
2023-02-28T21:36:59.782Z,28.25
2023-02-28T21:40:14.959Z,28.50
2023-02-28T21:43:27.173Z,28.20
2023-02-28T21:46:39.480Z,29.10
2023-02-28T21:49:51.778Z,28.13
2023-02-28T21:53:03.909Z,29.65
2023-02-28T21:56:21.119Z,30.58
2023-02-28T21:59:33.639Z,28.18
2023-02-28T22:02:46.120Z,28.93
2023-02-28T22:05:58.653Z,28.20
2023-02-28T22:09:14.252Z,27.75
2023-02-28T22:12:27.101Z,28.88
2023-02-28T22:15:41.803Z,31.38
2023-02-28T22:18:54.751Z,30.98
2023-02-28T22:22:07.181Z,31.80
2023-02-28T22:25:20.168Z,31.20
2023-02-28T22:28:33.016Z,30.05
2023-02-28T22:31:45.341Z,30.70
2023-02-28T22:34:59.660Z,30.83
2023-02-28T22:38:11.875Z,30.93
2023-02-28T22:41:26.681Z,29.73
2023-02-28T22:44:39.055Z,32.23
2023-02-28T22:47:53.851Z,31.88
2023-02-28T22:51:15.129Z,31.13
2023-02-28T22:54:27.747Z,31.80
2023-02-28T22:57:40.315Z,32.78
2023-02-28T23:00:54.879Z,31.70
2023-02-28T23:04:07.352Z,30.50
2023-02-28T23:07:21.501Z,30.28
2023-02-28T23:10:33.694Z,30.70
2023-02-28T23:13:47.846Z,31.95
2023-02-28T23:17:01.029Z,32.08
2023-02-28T23:20:16.482Z,29.48
2023-02-28T23:23:28.660Z,30.88
2023-02-28T23:26:41.941Z,30.50
2023-02-28T23:29:54.199Z,30.08
2023-02-28T23:33:06.209Z,29.35
2023-02-28T23:36:21.284Z,30.65
2023-02-28T23:39:35.431Z,29.45
2023-02-28T23:42:47.431Z,31.23
2023-02-28T23:46:04.139Z,29.93
2023-02-28T23:49:16.450Z,30.20
2023-02-28T23:52:29.990Z,30.63
2023-02-28T23:55:41.995Z,29.65
2023-02-28T23:58:55.326Z,33.53
